createdAt,value
2022-12-19T00:00:34.506Z,19.95
2022-12-19T00:03:03.542Z,20.58
2022-12-19T00:05:31.852Z,20.38
2022-12-19T00:08:02.438Z,21.17
2022-12-19T00:10:46.177Z,20.25
2022-12-19T00:13:17.747Z,20.38
2022-12-19T00:15:48.397Z,22.73
2022-12-19T00:18:17.531Z,21.33
2022-12-19T00:20:45.654Z,21.95
2022-12-19T00:23:15.040Z,20.88
2022-12-19T00:25:45.887Z,20.13
2022-12-19T00:28:19.081Z,22.10
2022-12-19T00:30:49.398Z,21.88
2022-12-19T00:33:19.652Z,19.50
2022-12-19T00:35:47.831Z,19.92
2022-12-19T00:38:23.446Z,20.52
2022-12-19T00:40:51.468Z,21.35
2022-12-19T00:43:21.257Z,21.70
2022-12-19T00:45:50.893Z,20.48
2022-12-19T00:48:19.027Z,19.75
2022-12-19T00:50:46.896Z,20.55
2022-12-19T00:53:14.991Z,21.92
2022-12-19T00:55:43.355Z,20.45
2022-12-19T00:58:11.632Z,20.25
2022-12-19T01:00:40.886Z,19.92
2022-12-19T01:03:13.022Z,20.60
2022-12-19T01:05:43.421Z,20.55
2022-12-19T01:08:13.614Z,20.58
2022-12-19T01:10:47.110Z,19.42
2022-12-19T01:13:14.251Z,19.45
2022-12-19T01:15:42.871Z,20.85
2022-12-19T01:18:12.692Z,19.83
2022-12-19T01:20:42.668Z,18.25
2022-12-19T01:23:11.419Z,20.90
2022-12-19T01:25:39.920Z,20.63
2022-12-19T01:28:16.751Z,19.92
2022-12-19T01:30:47.453Z,20.00
2022-12-19T01:33:23.410Z,20.83
2022-12-19T01:35:51.780Z,19.63
2022-12-19T01:38:23.729Z,19.55
2022-12-19T01:40:52.838Z,20.50
2022-12-19T01:43:21.840Z,20.77
2022-12-19T01:45:55.059Z,20.90
2022-12-19T01:48:32.230Z,20.73
2022-12-19T01:51:03.839Z,20.00
2022-12-19T01:53:45.754Z,20.15
2022-12-19T01:56:18.204Z,20.48
2022-12-19T01:58:49.468Z,19.63
2022-12-19T02:01:18.931Z,20.38
2022-12-19T02:03:49.150Z,20.10
2022-12-19T02:06:17.486Z,20.02
2022-12-19T02:08:47.763Z,18.73
2022-12-19T02:11:16.315Z,19.38
2022-12-19T02:13:46.696Z,20.23
2022-12-19T02:16:24.007Z,20.13
2022-12-19T02:19:09.502Z,18.17
2022-12-19T02:21:55.994Z,18.73
2022-12-19T02:24:59.985Z,19.45
2022-12-19T02:27:59.311Z,20.17
2022-12-19T02:30:52.938Z,20.05
2022-12-19T02:33:28.701Z,20.35
2022-12-19T02:36:05.537Z,19.20
2022-12-19T02:38:40.473Z,19.55
2022-12-19T02:41:14.332Z,19.00
2022-12-19T02:43:47.546Z,18.88
2022-12-19T02:46:22.400Z,17.55
2022-12-19T02:48:51.216Z,18.90
2022-12-19T02:51:19.332Z,19.35
2022-12-19T02:53:47.837Z,20.73
2022-12-19T02:56:39.390Z,18.23
2022-12-19T02:59:16.759Z,20.38
2022-12-19T03:01:52.222Z,18.73
2022-12-19T03:04:32.965Z,19.02
2022-12-19T03:07:09.745Z,18.95
2022-12-19T03:09:51.130Z,18.88
2022-12-19T03:12:25.374Z,19.77
2022-12-19T03:14:54.826Z,19.75
2022-12-19T03:17:24.461Z,19.17
2022-12-19T03:19:52.426Z,19.60
2022-12-19T03:22:21.211Z,19.63
2022-12-19T03:24:51.797Z,19.10
2022-12-19T03:27:25.876Z,19.02
2022-12-19T03:30:01.441Z,18.52
2022-12-19T03:32:32.243Z,17.85
2022-12-19T03:35:05.683Z,18.08
2022-12-19T03:37:36.513Z,18.65
2022-12-19T03:40:10.536Z,20.15
2022-12-19T03:42:58.747Z,18.52
2022-12-19T03:45:32.215Z,18.42
2022-12-19T03:48:05.541Z,18.85
2022-12-19T03:50:48.889Z,18.88
2022-12-19T03:53:30.575Z,18.40
2022-12-19T03:56:06.701Z,19.52
2022-12-19T03:58:39.612Z,17.63
2022-12-19T04:03:45.026Z,18.50
2022-12-19T04:06:14.450Z,18.85
2022-12-19T04:08:44.605Z,20.13
2022-12-19T04:11:20.832Z,19.48
2022-12-19T04:13:53.102Z,20.10
2022-12-19T04:16:28.230Z,18.60
2022-12-19T04:19:04.972Z,18.98
2022-12-19T04:21:37.742Z,19.38
2022-12-19T04:24:13.011Z,19.63
2022-12-19T04:26:46.748Z,19.88
2022-12-19T04:29:16.109Z,18.52
2022-12-19T04:31:46.520Z,20.25
2022-12-19T04:34:22.099Z,19.00
2022-12-19T04:36:51.434Z,19.52
2022-12-19T04:39:20.409Z,18.83
2022-12-19T04:41:48.827Z,20.45
2022-12-19T04:44:19.886Z,18.23
2022-12-19T04:46:48.553Z,19.55
2022-12-19T04:49:18.097Z,19.50
2022-12-19T04:51:46.712Z,20.50
2022-12-19T04:54:14.599Z,19.67
2022-12-19T04:56:42.771Z,20.70
2022-12-19T04:59:11.247Z,19.55
2022-12-19T05:01:39.520Z,19.88
2022-12-19T05:04:07.793Z,20.13
2022-12-19T05:06:37.154Z,20.67
2022-12-19T05:09:05.447Z,19.80
2022-12-19T05:11:34.898Z,18.95
2022-12-19T05:14:03.374Z,20.60
2022-12-19T05:16:31.366Z,20.02
2022-12-19T05:18:59.636Z,20.33
2022-12-19T05:21:27.756Z,20.45
2022-12-19T05:23:57.269Z,22.13
2022-12-19T05:26:25.345Z,20.00
2022-12-19T05:28:53.780Z,18.80
2022-12-19T05:31:24.845Z,20.30
2022-12-19T05:33:53.109Z,21.60
2022-12-19T05:36:24.533Z,22.63
2022-12-19T05:38:57.159Z,20.63
2022-12-19T05:41:25.212Z,20.52
2022-12-19T05:43:55.001Z,20.23
2022-12-19T05:46:24.103Z,20.23
2022-12-19T05:48:54.228Z,20.48
2022-12-19T05:51:22.854Z,20.65
2022-12-19T05:53:50.937Z,21.13
2022-12-19T05:56:23.350Z,21.73
2022-12-19T05:58:51.642Z,21.60
2022-12-19T06:01:22.413Z,20.85
2022-12-19T06:03:50.928Z,20.98
2022-12-19T06:06:24.280Z,20.85
2022-12-19T06:08:55.006Z,20.98
2022-12-19T06:11:24.890Z,19.95
2022-12-19T06:13:52.890Z,20.73
2022-12-19T06:16:23.496Z,20.60
2022-12-19T06:18:52.694Z,19.50
2022-12-19T06:21:25.830Z,23.20
2022-12-19T06:23:53.968Z,23.80
2022-12-19T06:26:24.189Z,22.40
2022-12-19T06:28:53.895Z,20.73
2022-12-19T06:31:23.168Z,22.75
2022-12-19T06:33:54.910Z,20.98
2022-12-19T06:36:24.655Z,22.20
2022-12-19T06:38:54.545Z,20.63
2022-12-19T06:41:41.757Z,20.30
2022-12-19T06:44:12.178Z,20.73
2022-12-19T06:46:41.502Z,22.50
2022-12-19T06:49:10.033Z,20.13
2022-12-19T06:51:38.208Z,21.65
2022-12-19T06:54:06.594Z,21.33
2022-12-19T06:56:42.208Z,21.38
2022-12-19T06:59:16.178Z,22.27
2022-12-19T07:01:54.039Z,22.23
2022-12-19T07:04:27.803Z,20.08
2022-12-19T07:06:56.630Z,21.08
2022-12-19T07:09:24.574Z,20.83
2022-12-19T07:11:54.016Z,21.05
2022-12-19T07:14:22.244Z,22.17
2022-12-19T07:16:52.138Z,21.92
2022-12-19T07:19:21.201Z,21.90
2022-12-19T07:21:50.137Z,20.55
2022-12-19T07:24:19.188Z,20.48
2022-12-19T07:26:47.373Z,21.00
2022-12-19T07:29:17.376Z,20.95
2022-12-19T07:31:45.655Z,21.00
2022-12-19T07:34:13.547Z,22.40
2022-12-19T07:36:41.992Z,21.55
2022-12-19T07:39:10.242Z,22.00
2022-12-19T07:41:38.485Z,22.25
2022-12-19T07:44:08.680Z,23.05
2022-12-19T07:46:38.247Z,24.30
2022-12-19T07:49:06.461Z,22.65
2022-12-19T07:51:34.598Z,23.15
2022-12-19T07:54:02.585Z,22.25
2022-12-19T07:56:32.590Z,23.95
2022-12-19T07:59:00.917Z,22.65
2022-12-19T08:01:29.741Z,20.13
2022-12-19T08:04:00.420Z,21.08
2022-12-19T08:06:29.522Z,23.65
2022-12-19T08:09:05.446Z,22.45
2022-12-19T08:11:33.437Z,21.63
2022-12-19T08:14:01.545Z,22.00
2022-12-19T08:16:29.503Z,21.95
2022-12-19T08:18:57.519Z,22.23
2022-12-19T08:21:26.973Z,23.23
2022-12-19T08:23:55.277Z,22.27
2022-12-19T08:26:26.055Z,23.20
2022-12-19T08:28:54.534Z,24.42
2022-12-19T08:31:25.129Z,23.70
2022-12-19T08:33:54.868Z,23.77
2022-12-19T08:36:23.156Z,23.98
2022-12-19T08:38:53.840Z,22.98
2022-12-19T08:41:22.193Z,21.45
2022-12-19T08:43:53.992Z,22.42
2022-12-19T08:46:23.042Z,20.83
2022-12-19T08:48:52.531Z,22.33
2022-12-19T08:51:20.940Z,23.55
2022-12-19T08:53:49.276Z,23.02
2022-12-19T08:56:20.936Z,24.40
2022-12-19T08:58:49.949Z,25.27
2022-12-19T09:01:20.576Z,22.52
2022-12-19T09:04:27.909Z,23.98
2022-12-19T09:06:37.367Z,25.08
2022-12-19T09:09:06.688Z,25.33
2022-12-19T09:11:37.607Z,26.88
2022-12-19T09:14:20.939Z,30.38
2022-12-19T09:19:18.168Z,24.25
2022-12-19T09:21:48.821Z,24.23
2022-12-19T09:24:17.004Z,24.98
2022-12-19T09:26:46.549Z,23.52
2022-12-19T09:29:20.570Z,25.50
2022-12-19T09:31:55.525Z,25.17
2022-12-19T09:34:31.779Z,25.88
2022-12-19T09:37:05.246Z,26.70
2022-12-19T09:39:34.153Z,23.55
2022-12-19T09:42:26.836Z,25.20
2022-12-19T09:45:08.276Z,24.80
2022-12-19T09:47:40.010Z,22.60
2022-12-19T09:50:24.301Z,22.08
2022-12-19T09:52:59.139Z,24.13
2022-12-19T09:55:34.769Z,24.70
2022-12-19T09:58:09.236Z,24.67
2022-12-19T10:00:42.444Z,24.35
2022-12-19T10:03:20.531Z,24.45
2022-12-19T10:07:08.829Z,24.15
2022-12-19T10:09:02.593Z,24.13
2022-12-19T10:12:44.384Z,23.27
2022-12-19T10:14:58.594Z,24.30
2022-12-19T10:17:36.846Z,22.90
2022-12-19T10:20:25.360Z,23.55
2022-12-19T10:23:03.994Z,23.88
2022-12-19T10:25:47.677Z,23.67
2022-12-19T10:28:28.870Z,23.92
2022-12-19T10:31:13.991Z,24.60
2022-12-19T10:33:47.956Z,22.75
2022-12-19T10:36:15.858Z,23.92
2022-12-19T10:38:55.461Z,22.70
2022-12-19T10:41:29.296Z,23.83
2022-12-19T10:44:05.727Z,21.98
2022-12-19T10:46:41.117Z,22.08
2022-12-19T10:49:15.264Z,22.10
2022-12-19T10:51:43.748Z,22.05
2022-12-19T10:54:11.783Z,21.95
2022-12-19T10:56:40.108Z,21.42
2022-12-19T10:59:18.056Z,21.25
2022-12-19T11:01:54.171Z,20.75
2022-12-19T11:04:32.499Z,20.17
2022-12-19T11:07:18.428Z,20.13
2022-12-19T11:09:59.959Z,20.73
2022-12-19T11:16:05.815Z,20.63
2022-12-19T11:19:17.637Z,20.92
2022-12-19T11:26:34.453Z,20.77
2022-12-19T11:29:40.502Z,19.25
2022-12-19T11:30:05.172Z,20.20
2022-12-19T11:30:49.024Z,18.77
2022-12-19T11:32:43.786Z,18.48
2022-12-19T11:35:36.744Z,19.60
2022-12-19T11:38:08.474Z,20.63
2022-12-19T11:40:46.536Z,21.27
2022-12-19T11:43:43.656Z,19.45
2022-12-19T11:46:25.562Z,22.40
2022-12-19T11:48:57.819Z,21.13
2022-12-19T11:51:34.571Z,19.92
2022-12-19T11:54:12.848Z,20.05
2022-12-19T11:56:41.092Z,21.42
2022-12-19T11:59:19.689Z,23.45
2022-12-19T12:02:01.692Z,21.95
2022-12-19T12:04:51.988Z,20.02
2022-12-19T12:08:35.414Z,19.90
2022-12-19T12:15:10.025Z,19.98
2022-12-19T12:22:09.835Z,21.60
2022-12-19T12:29:41.623Z,21.50
2022-12-19T12:31:13.019Z,21.10
2022-12-19T12:31:28.140Z,22.88
2022-12-19T12:31:53.069Z,22.75
2022-12-19T12:35:08.606Z,21.38
2022-12-19T12:35:30.461Z,21.52
2022-12-19T12:40:50.557Z,20.17
2022-12-19T12:43:32.645Z,19.42
2022-12-19T12:46:01.238Z,20.60
2022-12-19T12:48:34.293Z,19.60
2022-12-19T12:51:04.019Z,19.50
2022-12-19T12:53:38.287Z,19.88
2022-12-19T12:56:11.458Z,19.73
2022-12-19T12:59:08.662Z,19.35
2022-12-19T13:01:43.655Z,18.98
2022-12-19T13:04:26.060Z,18.85
2022-12-19T13:07:20.088Z,19.30
2022-12-19T13:09:54.880Z,20.40
2022-12-19T13:12:44.974Z,19.65
2022-12-19T13:15:43.482Z,18.40
2022-12-19T13:18:33.786Z,20.23
2022-12-19T13:21:04.041Z,19.65
2022-12-19T13:23:49.484Z,21.05
2022-12-19T13:26:51.061Z,20.38
2022-12-19T13:29:36.310Z,18.02
2022-12-19T13:32:14.588Z,19.35
2022-12-19T13:35:07.036Z,20.20
2022-12-19T13:39:54.776Z,18.70
2022-12-19T13:40:34.499Z,18.92
2022-12-19T13:43:33.909Z,20.65
2022-12-19T13:46:08.145Z,20.60
2022-12-19T13:48:41.363Z,21.02
2022-12-19T13:51:11.965Z,20.98
2022-12-19T13:53:40.410Z,20.40
2022-12-19T13:56:14.636Z,19.65
2022-12-19T13:58:48.805Z,18.92
2022-12-19T14:01:24.052Z,18.80
2022-12-19T14:03:54.700Z,19.83
2022-12-19T14:06:26.177Z,19.70
2022-12-19T14:09:46.163Z,19.50
2022-12-19T14:13:43.648Z,19.42
2022-12-19T14:15:13.662Z,19.75
2022-12-19T14:17:49.173Z,20.77
2022-12-19T14:22:10.855Z,20.48
2022-12-19T14:23:09.048Z,20.25
2022-12-19T14:28:15.783Z,19.90
2022-12-19T14:28:39.742Z,19.38
2022-12-19T14:31:12.669Z,19.13
2022-12-19T14:36:34.566Z,18.00
2022-12-19T14:39:23.376Z,19.55
2022-12-19T14:42:11.904Z,21.73
2022-12-19T14:52:34.558Z,21.25
2022-12-19T14:52:35.127Z,20.10
2022-12-19T14:54:23.892Z,20.92
2022-12-19T14:54:28.280Z,19.60
2022-12-19T14:59:03.932Z,19.80
2022-12-19T15:01:36.545Z,20.45
2022-12-19T15:07:08.790Z,20.88
2022-12-19T15:10:58.553Z,21.40
2022-12-19T15:14:49.678Z,19.88
2022-12-19T15:15:58.740Z,19.83
2022-12-19T15:18:28.692Z,20.40
2022-12-19T15:20:59.210Z,21.10
2022-12-19T15:23:29.815Z,19.38
2022-12-19T15:26:05.577Z,20.50
2022-12-19T15:28:39.882Z,21.02
2022-12-19T15:31:15.280Z,21.23
2022-12-19T15:34:06.636Z,21.13
2022-12-19T15:36:31.628Z,22.10
2022-12-19T15:39:01.171Z,21.77
2022-12-19T15:41:31.236Z,23.45
2022-12-19T15:44:04.004Z,22.42
2022-12-19T15:46:34.064Z,23.13
2022-12-19T15:49:02.281Z,23.90
2022-12-19T15:51:30.318Z,21.52
2022-12-19T15:54:22.202Z,22.08
2022-12-19T15:56:51.249Z,21.77
2022-12-19T16:01:56.464Z,19.50
2022-12-19T16:04:25.743Z,21.52
2022-12-19T16:06:54.110Z,21.67
2022-12-19T16:09:24.166Z,21.67
2022-12-19T16:11:57.640Z,23.30
2022-12-19T16:14:27.545Z,22.42
2022-12-19T16:16:57.672Z,22.40
2022-12-19T16:19:30.252Z,22.20
2022-12-19T16:22:00.743Z,22.67
2022-12-19T16:24:28.806Z,24.25
2022-12-19T16:27:00.389Z,25.38
2022-12-19T16:29:31.481Z,26.80
2022-12-19T16:32:00.920Z,26.42
2022-12-19T16:34:31.351Z,28.02
2022-12-19T16:37:01.927Z,36.38
2022-12-19T16:39:30.215Z,34.83
2022-12-19T16:41:59.948Z,31.45
2022-12-19T16:44:32.138Z,29.00
2022-12-19T16:47:00.306Z,29.30
2022-12-19T16:49:28.490Z,27.40
2022-12-19T16:51:56.480Z,26.67
2022-12-19T16:54:24.502Z,25.15
2022-12-19T16:56:56.755Z,25.33
2022-12-19T16:59:32.390Z,24.50
2022-12-19T17:02:01.586Z,23.73
2022-12-19T17:04:30.562Z,24.65
2022-12-19T17:07:00.125Z,24.15
2022-12-19T17:09:28.303Z,24.40
2022-12-19T17:11:59.352Z,24.67
2022-12-19T17:14:31.856Z,26.50
2022-12-19T17:17:01.045Z,26.20
2022-12-19T17:19:37.326Z,24.25
2022-12-19T17:22:12.112Z,26.08
2022-12-19T17:24:40.546Z,25.92
2022-12-19T17:27:08.998Z,25.00
2022-12-19T17:29:38.409Z,25.63
2022-12-19T17:32:09.057Z,25.30
2022-12-19T17:34:37.563Z,25.80
2022-12-19T17:37:07.102Z,25.23
2022-12-19T17:39:35.685Z,26.08
2022-12-19T17:42:16.781Z,26.25
2022-12-19T17:44:46.169Z,24.75
2022-12-19T17:47:16.531Z,23.17
2022-12-19T17:49:44.818Z,23.80
2022-12-19T17:52:15.892Z,28.33
2022-12-19T17:54:44.400Z,29.25
2022-12-19T17:57:15.243Z,30.02
2022-12-19T17:59:43.929Z,31.63
2022-12-19T18:02:21.652Z,31.00
2022-12-19T18:04:50.472Z,30.25
2022-12-19T18:07:19.187Z,29.70
2022-12-19T18:09:48.514Z,32.45
2022-12-19T18:12:16.762Z,29.77
2022-12-19T18:14:44.988Z,31.40
2022-12-19T18:17:14.809Z,29.00
2022-12-19T18:19:44.748Z,31.42
2022-12-19T18:22:14.420Z,30.20
2022-12-19T18:24:42.966Z,31.90
2022-12-19T18:27:11.107Z,32.35
2022-12-19T18:29:39.043Z,30.02
2022-12-19T18:32:23.440Z,31.17
2022-12-19T18:34:53.763Z,30.52
2022-12-19T18:37:21.924Z,31.48
2022-12-19T18:39:56.277Z,33.33
2022-12-19T18:42:26.262Z,35.97
2022-12-19T18:44:54.641Z,35.83
2022-12-19T18:47:25.400Z,32.08
2022-12-19T18:49:55.269Z,32.30
2022-12-19T18:52:23.421Z,31.25
2022-12-19T18:54:51.691Z,31.63
2022-12-19T18:57:20.316Z,27.83
2022-12-19T18:59:50.225Z,27.55
2022-12-19T19:02:28.577Z,27.13
2022-12-19T19:04:58.990Z,25.75
2022-12-19T19:07:27.342Z,26.85
2022-12-19T19:09:55.557Z,26.17
2022-12-19T19:12:23.677Z,25.02
2022-12-19T19:14:52.159Z,23.77
2022-12-19T19:17:29.297Z,24.52
2022-12-19T19:19:59.071Z,24.70
2022-12-19T19:22:27.268Z,25.63
2022-12-19T19:24:55.807Z,26.83
2022-12-19T19:27:23.784Z,29.58
2022-12-19T19:29:53.409Z,26.50
2022-12-19T19:32:21.603Z,26.50
2022-12-19T19:34:53.407Z,26.63
2022-12-19T19:37:24.066Z,27.02
2022-12-19T19:39:52.687Z,23.42
2022-12-19T19:42:20.982Z,26.48
2022-12-19T19:44:49.146Z,24.63
2022-12-19T19:47:17.344Z,25.52
2022-12-19T19:49:45.526Z,24.73
2022-12-19T19:52:13.524Z,27.58
2022-12-19T19:54:42.883Z,28.75
2022-12-19T19:57:11.044Z,27.27
2022-12-19T19:59:39.593Z,28.35
2022-12-19T20:02:11.277Z,26.90
2022-12-19T20:04:40.484Z,27.05
2022-12-19T20:07:08.509Z,26.60
2022-12-19T20:09:37.060Z,27.67
2022-12-19T20:12:07.136Z,26.80
2022-12-19T20:14:36.307Z,27.95
2022-12-19T20:17:05.298Z,27.40
2022-12-19T20:19:33.180Z,26.80
2022-12-19T20:22:01.170Z,26.40
2022-12-19T20:24:30.650Z,24.65
2022-12-19T20:26:59.712Z,25.52
2022-12-19T20:29:30.388Z,25.13
2022-12-19T20:32:01.520Z,26.40
2022-12-19T20:34:29.870Z,26.48
2022-12-19T20:36:59.400Z,26.70
2022-12-19T20:39:27.527Z,25.83
2022-12-19T20:41:55.832Z,25.05
2022-12-19T20:44:24.839Z,26.45
2022-12-19T20:46:57.696Z,26.27
2022-12-19T20:49:25.813Z,27.23
2022-12-19T20:51:54.259Z,27.27
2022-12-19T20:54:23.638Z,27.15
2022-12-19T20:56:51.741Z,26.13
2022-12-19T20:59:20.341Z,25.70
2022-12-19T21:01:48.445Z,25.70
2022-12-19T21:04:19.200Z,26.50
2022-12-19T21:06:47.508Z,25.17
2022-12-19T21:09:15.545Z,25.63
2022-12-19T21:11:43.608Z,25.48
2022-12-19T21:14:12.254Z,25.77
2022-12-19T21:16:40.505Z,26.95
2022-12-19T21:19:09.021Z,25.33
2022-12-19T21:21:38.496Z,24.58
2022-12-19T21:24:07.396Z,23.98
2022-12-19T21:26:35.593Z,26.00
2022-12-19T21:29:03.715Z,24.55
2022-12-19T21:31:32.069Z,27.02
2022-12-19T21:34:02.153Z,24.10
2022-12-19T21:36:32.441Z,24.30
2022-12-19T21:39:03.051Z,24.52
2022-12-19T21:41:31.885Z,26.10
2022-12-19T21:44:01.092Z,25.73
2022-12-19T21:46:33.323Z,27.15
2022-12-19T21:49:02.848Z,25.83
2022-12-19T21:51:32.573Z,27.08
2022-12-19T21:54:04.492Z,23.42
2022-12-19T21:56:34.453Z,25.67
2022-12-19T21:59:05.029Z,26.27
2022-12-19T22:01:35.111Z,25.50
2022-12-19T22:04:06.362Z,24.83
2022-12-19T22:06:37.145Z,25.63
2022-12-19T22:09:09.982Z,26.73
2022-12-19T22:11:40.669Z,27.02
2022-12-19T22:14:12.600Z,26.65
2022-12-19T22:16:40.951Z,27.13
2022-12-19T22:19:10.997Z,25.63
2022-12-19T22:21:39.139Z,25.17
2022-12-19T22:24:14.338Z,25.05
2022-12-19T22:26:42.679Z,24.83
2022-12-19T22:29:14.541Z,26.52
2022-12-19T22:31:42.866Z,24.92
2022-12-19T22:34:12.980Z,25.70
2022-12-19T22:36:42.638Z,29.08
2022-12-19T22:39:14.573Z,26.55
2022-12-19T22:41:43.874Z,24.90
2022-12-19T22:44:18.150Z,25.52
2022-12-19T22:46:49.008Z,26.25
2022-12-19T22:49:17.171Z,28.83
2022-12-19T22:51:48.369Z,26.90
2022-12-19T22:54:19.301Z,27.55
2022-12-19T22:56:50.807Z,27.08
2022-12-19T22:59:19.449Z,26.35
2022-12-19T23:01:49.846Z,24.88
2022-12-19T23:04:18.454Z,26.63
2022-12-19T23:06:46.886Z,26.25
2022-12-19T23:09:17.962Z,26.55
2022-12-19T23:11:48.213Z,30.02
2022-12-19T23:14:19.947Z,31.83
2022-12-19T23:16:49.012Z,32.28
2022-12-19T23:19:18.749Z,29.90
2022-12-19T23:21:47.880Z,26.75
2022-12-19T23:24:17.251Z,25.27
2022-12-19T23:26:48.302Z,23.08
2022-12-19T23:29:16.747Z,22.77
2022-12-19T23:31:48.134Z,24.85
2022-12-19T23:34:17.330Z,25.33
2022-12-19T23:37:10.318Z,23.02
2022-12-19T23:39:36.465Z,26.35
2022-12-19T23:42:04.813Z,26.13
2022-12-19T23:44:32.800Z,25.80
2022-12-19T23:47:03.853Z,24.10
2022-12-19T23:49:32.729Z,22.73
2022-12-19T23:52:00.850Z,22.40
2022-12-19T23:54:28.973Z,22.80
2022-12-19T23:56:58.435Z,22.95
2022-12-19T23:59:26.474Z,22.63
